KBBW

Broken Bow Municipal/Keith Glaze Field Airport

Broken Bow, Nebraska, USA
METAR KBBW 180853Z AUTO 28008KT 10SM CLR M01/M05 A2991 RMK AO2 SLP146 T10111050 55006
Observed Flight Rules
Dec-18 @ 08:53 UTC (9 minutes ago) Visual Flight Rules
Wind Visibility Clouds
280° at 8 knots 10 miles
  • Clear skies
Temperatures Readings
Current -1°C / 30°F
Dewpoint -5°C / 23°F
Humidity 75%
Altimeter 29.91" Hg
Pressure 1014.6 hPa
Elevation 776
METAR KBBW 180853Z AUTO 28008KT 10SM CLR M01/M05 A2991 RMK AO2 SLP146 T10111050 55006
Observed Flight Rules
Dec-18 @ 08:53 UTC
(9 minutes ago)
VFR
Wind Visibility
280° at 8 knots 10 miles
Clouds
  • Clear skies
Temperature Dewpoint
-1°C / 30°F -5°C / 23°F
Humidity Altimeter Pressure
75% 29.91" Hg 1014.6 hPa